sensor_id;sensor_type;location;lat;lon;timestamp;P1;durP1;ratioP1;P2;durP2;ratioP2
71368;SDS011;59175;53.214;5.728;2022-10-20T00:00:00;10.23;;;0.87;;
71368;SDS011;59175;53.214;5.728;2022-10-20T00:02:25;3.23;;;0.83;;
71368;SDS011;59175;53.214;5.728;2022-10-20T00:04:51;5.13;;;0.70;;
71368;SDS011;59175;53.214;5.728;2022-10-20T00:07:16;3.10;;;0.83;;
71368;SDS011;59175;53.214;5.728;2022-10-20T00:09:41;3.33;;;0.83;;
71368;SDS011;59175;53.214;5.728;2022-10-20T00:12:06;5.73;;;1.03;;
71368;SDS011;59175;53.214;5.728;2022-10-20T00:14:31;3.27;;;1.00;;
71368;SDS011;59175;53.214;5.728;2022-10-20T00:16:57;4.97;;;1.40;;
71368;SDS011;59175;53.214;5.728;2022-10-20T00:19:25;5.47;;;0.68;;
71368;SDS011;59175;53.214;5.728;2022-10-20T00:21:50;6.03;;;1.20;;
71368;SDS011;59175;53.214;5.728;2022-10-20T00:24:15;3.40;;;0.80;;
71368;SDS011;59175;53.214;5.728;2022-10-20T00:26:41;9.20;;;1.00;;
71368;SDS011;59175;53.214;5.728;2022-10-20T00:29:06;3.63;;;0.67;;
71368;SDS011;59175;53.214;5.728;2022-10-20T00:31:31;4.93;;;1.03;;
71368;SDS011;59175;53.214;5.728;2022-10-20T00:33:56;4.57;;;1.27;;
71368;SDS011;59175;53.214;5.728;2022-10-20T00:36:22;6.47;;;1.60;;
71368;SDS011;59175;53.214;5.728;2022-10-20T00:38:47;7.60;;;1.27;;
71368;SDS011;59175;53.214;5.728;2022-10-20T00:41:17;5.47;;;1.20;;
71368;SDS011;59175;53.214;5.728;2022-10-20T00:43:47;4.47;;;1.37;;
71368;SDS011;59175;53.214;5.728;2022-10-20T00:46:13;6.40;;;1.48;;
71368;SDS011;59175;53.214;5.728;2022-10-20T00:48:39;4.28;;;0.90;;
71368;SDS011;59175;53.214;5.728;2022-10-20T00:51:05;4.75;;;1.77;;
71368;SDS011;59175;53.214;5.728;2022-10-20T00:53:31;4.80;;;1.13;;
71368;SDS011;59175;53.214;5.728;2022-10-20T00:55:56;3.23;;;0.83;;
71368;SDS011;59175;53.214;5.728;2022-10-20T00:58:22;5.25;;;1.50;;
71368;SDS011;59175;53.214;5.728;2022-10-20T01:00:49;6.93;;;1.17;;
71368;SDS011;59175;53.214;5.728;2022-10-20T01:03:17;5.35;;;1.55;;
71368;SDS011;59175;53.214;5.728;2022-10-20T01:05:44;4.13;;;1.38;;
71368;SDS011;59175;53.214;5.728;2022-10-20T01:08:09;8.20;;;2.43;;
71368;SDS011;59175;53.214;5.728;2022-10-20T01:10:37;3.90;;;0.80;;
71368;SDS011;59175;53.214;5.728;2022-10-20T01:16:01;4.38;;;1.15;;
71368;SDS011;59175;53.214;5.728;2022-10-20T01:18:33;6.97;;;1.57;;
71368;SDS011;59175;53.214;5.728;2022-10-20T01:32:04;4.03;;;0.87;;
71368;SDS011;59175;53.214;5.728;2022-10-20T01:39:29;7.67;;;1.63;;
71368;SDS011;59175;53.214;5.728;2022-10-20T01:42:00;5.80;;;1.83;;
71368;SDS011;59175;53.214;5.728;2022-10-20T01:44:26;5.25;;;1.25;;
71368;SDS011;59175;53.214;5.728;2022-10-20T01:46:52;5.03;;;1.43;;
71368;SDS011;59175;53.214;5.728;2022-10-20T01:49:18;3.90;;;1.00;;
71368;SDS011;59175;53.214;5.728;2022-10-20T01:51:44;8.43;;;1.40;;
71368;SDS011;59175;53.214;5.728;2022-10-20T01:54:22;4.23;;;1.40;;
71368;SDS011;59175;53.214;5.728;2022-10-20T01:56:50;2.72;;;1.17;;
71368;SDS011;59175;53.214;5.728;2022-10-20T02:01:59;5.63;;;1.30;;
71368;SDS011;59175;53.214;5.728;2022-10-20T02:04:32;9.80;;;1.00;;
71368;SDS011;59175;53.214;5.728;2022-10-20T02:07:02;4.95;;;1.70;;
71368;SDS011;59175;53.214;5.728;2022-10-20T02:09:30;5.33;;;1.30;;
71368;SDS011;59175;53.214;5.728;2022-10-20T02:12:03;2.75;;;0.60;;
71368;SDS011;59175;53.214;5.728;2022-10-20T02:14:29;3.22;;;0.90;;
71368;SDS011;59175;53.214;5.728;2022-10-20T02:16:58;11.52;;;1.77;;
71368;SDS011;59175;53.214;5.728;2022-10-20T02:19:25;2.97;;;0.75;;
71368;SDS011;59175;53.214;5.728;2022-10-20T02:21:53;5.47;;;1.53;;
71368;SDS011;59175;53.214;5.728;2022-10-20T02:24:19;11.15;;;1.58;;
71368;SDS011;59175;53.214;5.728;2022-10-20T02:26:46;4.85;;;1.33;;
71368;SDS011;59175;53.214;5.728;2022-10-20T02:29:15;5.13;;;1.20;;
71368;SDS011;59175;53.214;5.728;2022-10-20T02:31:41;10.65;;;1.13;;
71368;SDS011;59175;53.214;5.728;2022-10-20T02:34:07;3.65;;;0.80;;
71368;SDS011;59175;53.214;5.728;2022-10-20T02:36:35;5.67;;;1.27;;
71368;SDS011;59175;53.214;5.728;2022-10-20T02:39:01;3.38;;;0.93;;
71368;SDS011;59175;53.214;5.728;2022-10-20T02:41:26;2.93;;;0.87;;
71368;SDS011;59175;53.214;5.728;2022-10-20T02:43:51;5.53;;;1.17;;
71368;SDS011;59175;53.214;5.728;2022-10-20T02:46:16;5.40;;;1.10;;
71368;SDS011;59175;53.214;5.728;2022-10-20T02:48:41;8.37;;;1.00;;
71368;SDS011;59175;53.214;5.728;2022-10-20T02:51:07;5.73;;;1.67;;
71368;SDS011;59175;53.214;5.728;2022-10-20T02:53:32;6.67;;;1.90;;
71368;SDS011;59175;53.214;5.728;2022-10-20T02:55:57;3.20;;;0.87;;
71368;SDS011;59175;53.214;5.728;2022-10-20T02:58:23;5.20;;;1.33;;
71368;SDS011;59175;53.214;5.728;2022-10-20T03:00:48;5.53;;;0.97;;
71368;SDS011;59175;53.214;5.728;2022-10-20T03:03:14;5.32;;;1.20;;
71368;SDS011;59175;53.214;5.728;2022-10-20T03:05:40;4.40;;;1.27;;
71368;SDS011;59175;53.214;5.728;2022-10-20T03:08:08;13.55;;;2.33;;
71368;SDS011;59175;53.214;5.728;2022-10-20T03:10:33;3.83;;;1.00;;
71368;SDS011;59175;53.214;5.728;2022-10-20T03:12:59;3.20;;;0.83;;
71368;SDS011;59175;53.214;5.728;2022-10-20T03:15:24;3.90;;;1.03;;
71368;SDS011;59175;53.214;5.728;2022-10-20T03:17:49;2.37;;;0.60;;
71368;SDS011;59175;53.214;5.728;2022-10-20T03:20:14;4.67;;;1.30;;
71368;SDS011;59175;53.214;5.728;2022-10-20T03:22:40;4.83;;;1.67;;
71368;SDS011;59175;53.214;5.728;2022-10-20T03:25:05;8.37;;;1.33;;
71368;SDS011;59175;53.214;5.728;2022-10-20T03:27:30;3.83;;;1.10;;
71368;SDS011;59175;53.214;5.728;2022-10-20T03:29:55;4.03;;;1.30;;
71368;SDS011;59175;53.214;5.728;2022-10-20T03:32:21;3.97;;;1.27;;
71368;SDS011;59175;53.214;5.728;2022-10-20T03:34:46;6.80;;;1.50;;
71368;SDS011;59175;53.214;5.728;2022-10-20T03:37:11;4.50;;;1.40;;
71368;SDS011;59175;53.214;5.728;2022-10-20T03:39:36;5.37;;;1.50;;
71368;SDS011;59175;53.214;5.728;2022-10-20T03:42:01;5.30;;;1.63;;
71368;SDS011;59175;53.214;5.728;2022-10-20T03:44:27;5.27;;;1.50;;
71368;SDS011;59175;53.214;5.728;2022-10-20T03:46:52;10.13;;;1.53;;
71368;SDS011;59175;53.214;5.728;2022-10-20T03:49:17;5.70;;;1.40;;
71368;SDS011;59175;53.214;5.728;2022-10-20T03:51:42;3.97;;;0.90;;
71368;SDS011;59175;53.214;5.728;2022-10-20T03:54:07;6.27;;;1.67;;
71368;SDS011;59175;53.214;5.728;2022-10-20T03:56:33;5.60;;;1.37;;
71368;SDS011;59175;53.214;5.728;2022-10-20T03:58:58;4.37;;;1.40;;
71368;SDS011;59175;53.214;5.728;2022-10-20T04:01:26;4.30;;;1.00;;
71368;SDS011;59175;53.214;5.728;2022-10-20T04:03:52;5.65;;;1.38;;
71368;SDS011;59175;53.214;5.728;2022-10-20T04:06:18;4.47;;;1.53;;
71368;SDS011;59175;53.214;5.728;2022-10-20T04:08:43;3.87;;;0.90;;
71368;SDS011;59175;53.214;5.728;2022-10-20T04:11:08;3.77;;;1.03;;
71368;SDS011;59175;53.214;5.728;2022-10-20T04:13:33;4.43;;;1.27;;
71368;SDS011;59175;53.214;5.728;2022-10-20T04:15:58;7.80;;;1.87;;
71368;SDS011;59175;53.214;5.728;2022-10-20T04:18:24;5.60;;;0.97;;
71368;SDS011;59175;53.214;5.728;2022-10-20T04:20:49;9.70;;;1.37;;
71368;SDS011;59175;53.214;5.728;2022-10-20T04:23:14;4.93;;;1.53;;
71368;SDS011;59175;53.214;5.728;2022-10-20T04:25:40;3.60;;;0.90;;
71368;SDS011;59175;53.214;5.728;2022-10-20T04:28:09;6.10;;;1.30;;
71368;SDS011;59175;53.214;5.728;2022-10-20T04:30:36;3.77;;;1.03;;
71368;SDS011;59175;53.214;5.728;2022-10-20T04:33:02;5.70;;;0.88;;
71368;SDS011;59175;53.214;5.728;2022-10-20T04:35:27;3.73;;;1.30;;
71368;SDS011;59175;53.214;5.728;2022-10-20T04:37:53;5.70;;;2.13;;
71368;SDS011;59175;53.214;5.728;2022-10-20T04:40:18;8.45;;;1.55;;
71368;SDS011;59175;53.214;5.728;2022-10-20T04:42:43;5.87;;;1.60;;
71368;SDS011;59175;53.214;5.728;2022-10-20T04:45:08;4.03;;;1.07;;
71368;SDS011;59175;53.214;5.728;2022-10-20T04:47:33;5.33;;;1.73;;
71368;SDS011;59175;53.214;5.728;2022-10-20T04:50:01;3.65;;;1.27;;
71368;SDS011;59175;53.214;5.728;2022-10-20T04:52:27;3.97;;;1.23;;
71368;SDS011;59175;53.214;5.728;2022-10-20T04:54:52;3.87;;;1.17;;
71368;SDS011;59175;53.214;5.728;2022-10-20T04:57:17;5.37;;;1.50;;
71368;SDS011;59175;53.214;5.728;2022-10-20T04:59:42;4.80;;;1.67;;
71368;SDS011;59175;53.214;5.728;2022-10-20T05:02:08;6.07;;;1.33;;
71368;SDS011;59175;53.214;5.728;2022-10-20T05:04:35;11.32;;;1.88;;
71368;SDS011;59175;53.214;5.728;2022-10-20T05:07:00;7.67;;;1.80;;
71368;SDS011;59175;53.214;5.728;2022-10-20T05:09:25;6.23;;;1.73;;
71368;SDS011;59175;53.214;5.728;2022-10-20T05:11:50;4.23;;;1.33;;
71368;SDS011;59175;53.214;5.728;2022-10-20T05:14:17;4.68;;;1.10;;
71368;SDS011;59175;53.214;5.728;2022-10-20T05:16:42;5.50;;;1.43;;
71368;SDS011;59175;53.214;5.728;2022-10-20T05:19:08;6.43;;;2.40;;
71368;SDS011;59175;53.214;5.728;2022-10-20T05:21:33;5.57;;;1.50;;
71368;SDS011;59175;53.214;5.728;2022-10-20T05:23:59;4.40;;;1.67;;
71368;SDS011;59175;53.214;5.728;2022-10-20T05:26:25;9.60;;;2.00;;
71368;SDS011;59175;53.214;5.728;2022-10-20T05:28:50;4.35;;;1.63;;
71368;SDS011;59175;53.214;5.728;2022-10-20T05:31:17;7.07;;;2.40;;
71368;SDS011;59175;53.214;5.728;2022-10-20T05:33:43;5.82;;;1.40;;
71368;SDS011;59175;53.214;5.728;2022-10-20T05:36:09;7.37;;;2.33;;
71368;SDS011;59175;53.214;5.728;2022-10-20T05:38:34;5.72;;;2.25;;
71368;SDS011;59175;53.214;5.728;2022-10-20T05:43:35;10.68;;;2.42;;
71368;SDS011;59175;53.214;5.728;2022-10-20T05:46:00;6.50;;;1.87;;
71368;SDS011;59175;53.214;5.728;2022-10-20T05:48:26;5.00;;;1.60;;
71368;SDS011;59175;53.214;5.728;2022-10-20T05:50:51;4.20;;;1.70;;
71368;SDS011;59175;53.214;5.728;2022-10-20T05:53:16;4.50;;;1.60;;
71368;SDS011;59175;53.214;5.728;2022-10-20T05:55:41;4.67;;;1.57;;
71368;SDS011;59175;53.214;5.728;2022-10-20T05:58:07;6.50;;;1.53;;
71368;SDS011;59175;53.214;5.728;2022-10-20T06:00:32;5.57;;;2.30;;
71368;SDS011;59175;53.214;5.728;2022-10-20T06:03:05;15.10;;;3.15;;
71368;SDS011;59175;53.214;5.728;2022-10-20T06:05:30;7.53;;;2.40;;
71368;SDS011;59175;53.214;5.728;2022-10-20T06:07:55;4.93;;;1.77;;
71368;SDS011;59175;53.214;5.728;2022-10-20T06:10:20;6.17;;;1.93;;
71368;SDS011;59175;53.214;5.728;2022-10-20T06:12:46;7.30;;;1.83;;
71368;SDS011;59175;53.214;5.728;2022-10-20T06:15:11;14.50;;;2.80;;
71368;SDS011;59175;53.214;5.728;2022-10-20T06:17:36;7.17;;;2.53;;
71368;SDS011;59175;53.214;5.728;2022-10-20T06:20:01;8.97;;;2.43;;
71368;SDS011;59175;53.214;5.728;2022-10-20T06:22:27;6.93;;;1.83;;
71368;SDS011;59175;53.214;5.728;2022-10-20T06:24:52;7.07;;;2.50;;
71368;SDS011;59175;53.214;5.728;2022-10-20T06:27:17;9.60;;;2.67;;
71368;SDS011;59175;53.214;5.728;2022-10-20T06:29:42;6.13;;;2.70;;
71368;SDS011;59175;53.214;5.728;2022-10-20T06:32:07;6.83;;;2.43;;
71368;SDS011;59175;53.214;5.728;2022-10-20T06:34:33;5.23;;;1.77;;
71368;SDS011;59175;53.214;5.728;2022-10-20T06:36:58;7.70;;;2.60;;
71368;SDS011;59175;53.214;5.728;2022-10-20T06:39:23;6.23;;;2.13;;
71368;SDS011;59175;53.214;5.728;2022-10-20T06:41:49;6.70;;;2.20;;
71368;SDS011;59175;53.214;5.728;2022-10-20T06:44:18;7.20;;;2.38;;
71368;SDS011;59175;53.214;5.728;2022-10-20T06:46:44;6.78;;;1.90;;
71368;SDS011;59175;53.214;5.728;2022-10-20T06:49:09;8.27;;;2.60;;
71368;SDS011;59175;53.214;5.728;2022-10-20T06:51:35;6.23;;;2.00;;
71368;SDS011;59175;53.214;5.728;2022-10-20T06:54:01;7.97;;;2.63;;
71368;SDS011;59175;53.214;5.728;2022-10-20T06:56:27;11.20;;;2.83;;
71368;SDS011;59175;53.214;5.728;2022-10-20T06:58:53;7.93;;;2.58;;
71368;SDS011;59175;53.214;5.728;2022-10-20T07:01:20;10.45;;;3.35;;
71368;SDS011;59175;53.214;5.728;2022-10-20T07:03:47;8.77;;;2.47;;
71368;SDS011;59175;53.214;5.728;2022-10-20T07:06:13;10.70;;;3.07;;
71368;SDS011;59175;53.214;5.728;2022-10-20T07:08:38;11.43;;;2.40;;
71368;SDS011;59175;53.214;5.728;2022-10-20T07:11:05;7.23;;;2.97;;
71368;SDS011;59175;53.214;5.728;2022-10-20T07:13:31;8.20;;;3.23;;
71368;SDS011;59175;53.214;5.728;2022-10-20T07:15:57;7.43;;;2.63;;
71368;SDS011;59175;53.214;5.728;2022-10-20T07:18:22;14.02;;;4.15;;
71368;SDS011;59175;53.214;5.728;2022-10-20T07:20:48;8.43;;;3.03;;
71368;SDS011;59175;53.214;5.728;2022-10-20T07:23:13;8.93;;;2.77;;
71368;SDS011;59175;53.214;5.728;2022-10-20T07:25:38;14.13;;;3.87;;
71368;SDS011;59175;53.214;5.728;2022-10-20T07:28:03;4.87;;;2.30;;
71368;SDS011;59175;53.214;5.728;2022-10-20T07:30:29;7.97;;;2.67;;
71368;SDS011;59175;53.214;5.728;2022-10-20T07:32:54;9.27;;;3.07;;
71368;SDS011;59175;53.214;5.728;2022-10-20T07:35:19;10.77;;;2.60;;
71368;SDS011;59175;53.214;5.728;2022-10-20T07:37:44;6.60;;;2.30;;
71368;SDS011;59175;53.214;5.728;2022-10-20T07:40:10;9.40;;;2.93;;
71368;SDS011;59175;53.214;5.728;2022-10-20T07:42:35;7.00;;;3.00;;
71368;SDS011;59175;53.214;5.728;2022-10-20T07:45:00;8.37;;;2.43;;
71368;SDS011;59175;53.214;5.728;2022-10-20T07:47:25;13.10;;;3.77;;
71368;SDS011;59175;53.214;5.728;2022-10-20T07:49:50;10.37;;;3.60;;
71368;SDS011;59175;53.214;5.728;2022-10-20T07:52:16;7.67;;;2.50;;
71368;SDS011;59175;53.214;5.728;2022-10-20T07:54:42;8.65;;;2.72;;
71368;SDS011;59175;53.214;5.728;2022-10-20T07:57:07;13.93;;;3.20;;
71368;SDS011;59175;53.214;5.728;2022-10-20T07:59:32;9.47;;;3.20;;
71368;SDS011;59175;53.214;5.728;2022-10-20T08:01:58;8.15;;;2.72;;
71368;SDS011;59175;53.214;5.728;2022-10-20T08:04:23;9.93;;;3.93;;
71368;SDS011;59175;53.214;5.728;2022-10-20T08:06:48;10.73;;;3.23;;
71368;SDS011;59175;53.214;5.728;2022-10-20T08:09:14;9.67;;;3.50;;
71368;SDS011;59175;53.214;5.728;2022-10-20T08:11:39;7.27;;;2.60;;
71368;SDS011;59175;53.214;5.728;2022-10-20T08:14:04;13.80;;;3.13;;
71368;SDS011;59175;53.214;5.728;2022-10-20T08:16:29;10.10;;;3.23;;
71368;SDS011;59175;53.214;5.728;2022-10-20T08:18:54;10.43;;;3.13;;
71368;SDS011;59175;53.214;5.728;2022-10-20T08:21:20;11.60;;;3.30;;
71368;SDS011;59175;53.214;5.728;2022-10-20T08:23:47;8.30;;;3.05;;
71368;SDS011;59175;53.214;5.728;2022-10-20T08:26:15;9.03;;;3.70;;
71368;SDS011;59175;53.214;5.728;2022-10-20T08:28:40;8.88;;;2.90;;
71368;SDS011;59175;53.214;5.728;2022-10-20T08:31:06;12.07;;;3.20;;
71368;SDS011;59175;53.214;5.728;2022-10-20T08:33:31;6.10;;;1.73;;
71368;SDS011;59175;53.214;5.728;2022-10-20T08:36:00;11.02;;;3.88;;
71368;SDS011;59175;53.214;5.728;2022-10-20T08:38:26;7.70;;;2.83;;
71368;SDS011;59175;53.214;5.728;2022-10-20T08:40:51;9.47;;;3.70;;
71368;SDS011;59175;53.214;5.728;2022-10-20T08:43:17;9.63;;;3.43;;
71368;SDS011;59175;53.214;5.728;2022-10-20T08:45:43;9.00;;;4.23;;
71368;SDS011;59175;53.214;5.728;2022-10-20T08:48:11;8.38;;;2.67;;
71368;SDS011;59175;53.214;5.728;2022-10-20T08:50:41;9.37;;;3.23;;
71368;SDS011;59175;53.214;5.728;2022-10-20T08:53:08;11.05;;;2.85;;
71368;SDS011;59175;53.214;5.728;2022-10-20T08:55:34;7.65;;;3.45;;
71368;SDS011;59175;53.214;5.728;2022-10-20T08:58:00;8.30;;;3.53;;
71368;SDS011;59175;53.214;5.728;2022-10-20T09:00:26;8.23;;;3.05;;
71368;SDS011;59175;53.214;5.728;2022-10-20T09:02:51;9.37;;;3.57;;
71368;SDS011;59175;53.214;5.728;2022-10-20T09:05:20;7.97;;;2.65;;
71368;SDS011;59175;53.214;5.728;2022-10-20T09:07:46;11.70;;;3.30;;
71368;SDS011;59175;53.214;5.728;2022-10-20T09:10:24;8.25;;;2.95;;
71368;SDS011;59175;53.214;5.728;2022-10-20T09:12:50;8.00;;;2.47;;
71368;SDS011;59175;53.214;5.728;2022-10-20T09:15:16;7.57;;;3.05;;
71368;SDS011;59175;53.214;5.728;2022-10-20T09:17:46;8.37;;;2.87;;
71368;SDS011;59175;53.214;5.728;2022-10-20T09:20:24;8.20;;;2.55;;
71368;SDS011;59175;53.214;5.728;2022-10-20T09:22:50;8.68;;;3.25;;
71368;SDS011;59175;53.214;5.728;2022-10-20T09:25:16;10.50;;;2.43;;
71368;SDS011;59175;53.214;5.728;2022-10-20T09:27:42;8.30;;;3.17;;
71368;SDS011;59175;53.214;5.728;2022-10-20T09:32:42;9.60;;;3.30;;
71368;SDS011;59175;53.214;5.728;2022-10-20T09:35:11;11.10;;;3.05;;
71368;SDS011;59175;53.214;5.728;2022-10-20T09:37:40;8.63;;;3.15;;
71368;SDS011;59175;53.214;5.728;2022-10-20T09:40:11;8.75;;;3.40;;
71368;SDS011;59175;53.214;5.728;2022-10-20T09:42:39;11.98;;;3.17;;
71368;SDS011;59175;53.214;5.728;2022-10-20T09:45:06;9.97;;;3.50;;
71368;SDS011;59175;53.214;5.728;2022-10-20T09:47:36;9.68;;;2.75;;
71368;SDS011;59175;53.214;5.728;2022-10-20T09:50:06;9.40;;;3.80;;
71368;SDS011;59175;53.214;5.728;2022-10-20T09:52:33;6.03;;;2.53;;
71368;SDS011;59175;53.214;5.728;2022-10-20T09:55:07;9.55;;;3.40;;
71368;SDS011;59175;53.214;5.728;2022-10-20T09:57:44;9.27;;;3.10;;
71368;SDS011;59175;53.214;5.728;2022-10-20T10:00:20;8.50;;;2.80;;
71368;SDS011;59175;53.214;5.728;2022-10-20T10:02:46;11.48;;;2.92;;
71368;SDS011;59175;53.214;5.728;2022-10-20T10:05:18;10.87;;;3.53;;
71368;SDS011;59175;53.214;5.728;2022-10-20T10:07:44;14.57;;;3.77;;
71368;SDS011;59175;53.214;5.728;2022-10-20T10:12:50;10.87;;;4.43;;
71368;SDS011;59175;53.214;5.728;2022-10-20T10:17:46;9.38;;;4.25;;
71368;SDS011;59175;53.214;5.728;2022-10-20T10:22:37;7.83;;;3.00;;
71368;SDS011;59175;53.214;5.728;2022-10-20T10:25:03;9.32;;;3.92;;
71368;SDS011;59175;53.214;5.728;2022-10-20T10:27:32;7.97;;;3.10;;
71368;SDS011;59175;53.214;5.728;2022-10-20T10:30:43;7.00;;;3.22;;
71368;SDS011;59175;53.214;5.728;2022-10-20T10:32:46;8.63;;;3.75;;
71368;SDS011;59175;53.214;5.728;2022-10-20T10:35:16;7.85;;;2.97;;
71368;SDS011;59175;53.214;5.728;2022-10-20T10:37:44;8.05;;;2.90;;
71368;SDS011;59175;53.214;5.728;2022-10-20T10:40:15;11.00;;;3.17;;
71368;SDS011;59175;53.214;5.728;2022-10-20T10:42:44;9.23;;;3.03;;
71368;SDS011;59175;53.214;5.728;2022-10-20T10:47:58;10.55;;;3.20;;
71368;SDS011;59175;53.214;5.728;2022-10-20T10:50:36;9.07;;;2.30;;
71368;SDS011;59175;53.214;5.728;2022-10-20T10:55:56;7.07;;;2.47;;
71368;SDS011;59175;53.214;5.728;2022-10-20T11:08:47;6.97;;;2.93;;
71368;SDS011;59175;53.214;5.728;2022-10-20T11:13:57;7.47;;;2.75;;
71368;SDS011;59175;53.214;5.728;2022-10-20T11:19:16;7.90;;;2.87;;
71368;SDS011;59175;53.214;5.728;2022-10-20T11:27:05;8.68;;;3.05;;
71368;SDS011;59175;53.214;5.728;2022-10-20T11:29:48;7.55;;;2.58;;
71368;SDS011;59175;53.214;5.728;2022-10-20T11:34:45;11.45;;;3.08;;
71368;SDS011;59175;53.214;5.728;2022-10-20T11:37:16;10.27;;;3.92;;
71368;SDS011;59175;53.214;5.728;2022-10-20T11:44:52;10.10;;;2.90;;
71368;SDS011;59175;53.214;5.728;2022-10-20T11:47:34;7.88;;;2.80;;
71368;SDS011;59175;53.214;5.728;2022-10-20T11:50:02;8.75;;;3.25;;
71368;SDS011;59175;53.214;5.728;2022-10-20T11:57:30;9.60;;;3.80;;
71368;SDS011;59175;53.214;5.728;2022-10-20T12:00:19;7.22;;;3.05;;
71368;SDS011;59175;53.214;5.728;2022-10-20T12:03:03;7.33;;;2.70;;
71368;SDS011;59175;53.214;5.728;2022-10-20T12:08:13;8.13;;;3.10;;
71368;SDS011;59175;53.214;5.728;2022-10-20T12:13:29;9.13;;;3.73;;
71368;SDS011;59175;53.214;5.728;2022-10-20T12:15:57;11.05;;;4.38;;
71368;SDS011;59175;53.214;5.728;2022-10-20T12:20:52;18.45;;;6.32;;
71368;SDS011;59175;53.214;5.728;2022-10-20T12:26:01;10.15;;;4.78;;
71368;SDS011;59175;53.214;5.728;2022-10-20T12:33:33;13.30;;;4.18;;
71368;SDS011;59175;53.214;5.728;2022-10-20T12:36:43;11.30;;;3.92;;
71368;SDS011;59175;53.214;5.728;2022-10-20T12:41:09;11.43;;;4.43;;
71368;SDS011;59175;53.214;5.728;2022-10-20T12:43:47;11.97;;;3.90;;
71368;SDS011;59175;53.214;5.728;2022-10-20T12:46:20;9.30;;;3.45;;
71368;SDS011;59175;53.214;5.728;2022-10-20T12:48:46;8.70;;;3.83;;
71368;SDS011;59175;53.214;5.728;2022-10-20T12:51:15;13.95;;;3.17;;
71368;SDS011;59175;53.214;5.728;2022-10-20T12:53:42;11.43;;;3.95;;
71368;SDS011;59175;53.214;5.728;2022-10-20T12:56:08;12.47;;;4.10;;
71368;SDS011;59175;53.214;5.728;2022-10-20T12:58:35;11.07;;;4.40;;
71368;SDS011;59175;53.214;5.728;2022-10-20T13:01:08;10.82;;;4.30;;
71368;SDS011;59175;53.214;5.728;2022-10-20T13:03:38;9.88;;;3.95;;
71368;SDS011;59175;53.214;5.728;2022-10-20T13:16:29;8.48;;;3.90;;
71368;SDS011;59175;53.214;5.728;2022-10-20T13:18:55;12.63;;;3.57;;
71368;SDS011;59175;53.214;5.728;2022-10-20T13:21:30;10.63;;;4.83;;
71368;SDS011;59175;53.214;5.728;2022-10-20T13:28:50;10.03;;;4.20;;
71368;SDS011;59175;53.214;5.728;2022-10-20T13:31:35;11.30;;;3.90;;
71368;SDS011;59175;53.214;5.728;2022-10-20T13:39:01;13.27;;;4.50;;
71368;SDS011;59175;53.214;5.728;2022-10-20T13:43:58;10.02;;;3.72;;
71368;SDS011;59175;53.214;5.728;2022-10-20T13:51:21;12.75;;;4.63;;
71368;SDS011;59175;53.214;5.728;2022-10-20T13:53:48;11.80;;;3.70;;
71368;SDS011;59175;53.214;5.728;2022-10-20T13:58:40;11.50;;;4.87;;
71368;SDS011;59175;53.214;5.728;2022-10-20T14:03:40;16.90;;;6.43;;
71368;SDS011;59175;53.214;5.728;2022-10-20T14:06:16;12.63;;;6.18;;
71368;SDS011;59175;53.214;5.728;2022-10-20T14:08:48;14.52;;;7.55;;
71368;SDS011;59175;53.214;5.728;2022-10-20T14:11:13;15.10;;;8.63;;
71368;SDS011;59175;53.214;5.728;2022-10-20T14:13:39;14.10;;;6.83;;
71368;SDS011;59175;53.214;5.728;2022-10-20T14:16:04;11.07;;;4.93;;
71368;SDS011;59175;53.214;5.728;2022-10-20T14:18:32;13.27;;;4.97;;
71368;SDS011;59175;53.214;5.728;2022-10-20T14:21:03;10.05;;;4.43;;
71368;SDS011;59175;53.214;5.728;2022-10-20T14:23:33;14.23;;;5.50;;
71368;SDS011;59175;53.214;5.728;2022-10-20T14:26:00;21.48;;;9.25;;
71368;SDS011;59175;53.214;5.728;2022-10-20T14:28:25;17.05;;;6.13;;
71368;SDS011;59175;53.214;5.728;2022-10-20T14:30:53;13.90;;;4.75;;
71368;SDS011;59175;53.214;5.728;2022-10-20T14:33:18;15.43;;;4.90;;
71368;SDS011;59175;53.214;5.728;2022-10-20T14:38:16;11.23;;;4.57;;
71368;SDS011;59175;53.214;5.728;2022-10-20T14:40:47;10.97;;;4.93;;
71368;SDS011;59175;53.214;5.728;2022-10-20T14:43:15;10.13;;;3.63;;
71368;SDS011;59175;53.214;5.728;2022-10-20T14:45:43;11.25;;;4.95;;
71368;SDS011;59175;53.214;5.728;2022-10-20T14:48:15;10.90;;;4.70;;
71368;SDS011;59175;53.214;5.728;2022-10-20T14:50:40;11.20;;;4.13;;
71368;SDS011;59175;53.214;5.728;2022-10-20T14:53:15;10.67;;;3.67;;
71368;SDS011;59175;53.214;5.728;2022-10-20T14:55:40;12.82;;;5.40;;
71368;SDS011;59175;53.214;5.728;2022-10-20T14:58:25;15.47;;;4.80;;
71368;SDS011;59175;53.214;5.728;2022-10-20T15:00:51;19.73;;;5.85;;
71368;SDS011;59175;53.214;5.728;2022-10-20T15:03:16;12.20;;;5.20;;
71368;SDS011;59175;53.214;5.728;2022-10-20T15:05:42;10.97;;;4.07;;
71368;SDS011;59175;53.214;5.728;2022-10-20T15:10:46;13.60;;;4.17;;
71368;SDS011;59175;53.214;5.728;2022-10-20T15:13:21;16.30;;;5.13;;
71368;SDS011;59175;53.214;5.728;2022-10-20T15:15:47;13.70;;;5.65;;
71368;SDS011;59175;53.214;5.728;2022-10-20T15:18:13;15.90;;;6.15;;
71368;SDS011;59175;53.214;5.728;2022-10-20T15:20:40;12.20;;;5.90;;
71368;SDS011;59175;53.214;5.728;2022-10-20T15:28:10;13.63;;;5.53;;
71368;SDS011;59175;53.214;5.728;2022-10-20T15:30:38;12.02;;;4.57;;
71368;SDS011;59175;53.214;5.728;2022-10-20T15:33:03;12.50;;;5.73;;
71368;SDS011;59175;53.214;5.728;2022-10-20T15:35:28;12.77;;;4.90;;
71368;SDS011;59175;53.214;5.728;2022-10-20T15:37:55;11.30;;;5.47;;
71368;SDS011;59175;53.214;5.728;2022-10-20T15:40:20;14.77;;;5.87;;
71368;SDS011;59175;53.214;5.728;2022-10-20T15:42:45;13.05;;;5.35;;
71368;SDS011;59175;53.214;5.728;2022-10-20T15:45:14;14.47;;;4.37;;
71368;SDS011;59175;53.214;5.728;2022-10-20T15:47:41;10.85;;;4.95;;
71368;SDS011;59175;53.214;5.728;2022-10-20T15:50:06;12.93;;;5.13;;
71368;SDS011;59175;53.214;5.728;2022-10-20T15:52:31;13.57;;;4.63;;
71368;SDS011;59175;53.214;5.728;2022-10-20T15:54:56;14.27;;;5.27;;
71368;SDS011;59175;53.214;5.728;2022-10-20T15:57:22;10.77;;;4.63;;
71368;SDS011;59175;53.214;5.728;2022-10-20T15:59:47;15.27;;;5.37;;
71368;SDS011;59175;53.214;5.728;2022-10-20T16:02:12;17.37;;;5.67;;
71368;SDS011;59175;53.214;5.728;2022-10-20T16:04:37;17.63;;;8.23;;
71368;SDS011;59175;53.214;5.728;2022-10-20T16:07:03;12.10;;;5.27;;
71368;SDS011;59175;53.214;5.728;2022-10-20T16:09:28;14.37;;;6.73;;
71368;SDS011;59175;53.214;5.728;2022-10-20T16:11:53;12.83;;;5.83;;
71368;SDS011;59175;53.214;5.728;2022-10-20T16:14:18;16.50;;;6.20;;
71368;SDS011;59175;53.214;5.728;2022-10-20T16:16:43;11.63;;;4.47;;
71368;SDS011;59175;53.214;5.728;2022-10-20T16:19:09;15.03;;;6.83;;
71368;SDS011;59175;53.214;5.728;2022-10-20T16:21:34;17.37;;;6.27;;
71368;SDS011;59175;53.214;5.728;2022-10-20T16:23:59;11.83;;;4.67;;
71368;SDS011;59175;53.214;5.728;2022-10-20T16:26:27;15.32;;;6.63;;
71368;SDS011;59175;53.214;5.728;2022-10-20T16:28:53;14.70;;;6.27;;
71368;SDS011;59175;53.214;5.728;2022-10-20T16:31:18;14.80;;;6.50;;
71368;SDS011;59175;53.214;5.728;2022-10-20T16:33:44;15.13;;;6.90;;
71368;SDS011;59175;53.214;5.728;2022-10-20T16:36:10;15.13;;;7.30;;
71368;SDS011;59175;53.214;5.728;2022-10-20T16:38:36;12.98;;;6.80;;
71368;SDS011;59175;53.214;5.728;2022-10-20T16:41:02;26.52;;;10.23;;
71368;SDS011;59175;53.214;5.728;2022-10-20T16:43:28;20.70;;;7.23;;
71368;SDS011;59175;53.214;5.728;2022-10-20T16:45:53;15.00;;;6.43;;
71368;SDS011;59175;53.214;5.728;2022-10-20T16:48:19;16.60;;;6.73;;
71368;SDS011;59175;53.214;5.728;2022-10-20T16:50:44;15.30;;;6.50;;
71368;SDS011;59175;53.214;5.728;2022-10-20T16:53:09;16.13;;;6.23;;
71368;SDS011;59175;53.214;5.728;2022-10-20T16:55:35;13.90;;;6.67;;